logo dgac
Lunes 19 de Abril del 2021
Buscar por aerodromo o helipuerto
Ingrese nombre de aeródromo, localidad o designador OACI:
TAF: TAF SCBA 191053Z 1912/2012 VRB02KT 8000 -RA OVC020 TX11/1914Z TN02/2011Z BECMG 1915/1917 30015KT 9999 NSW SCT030 BKN080 BECMG 2002/2004 VRB02KT SCT070 BKN200
TAF del 19/04/2021 a las 10:53 UTC
Para mayor información visite www.meteochile.cl
Período de validez: desde el 19 a las 12:00 UTC hasta el 20 a las 12:00 UTC
Viento: dirección variable, velocidad 2 nudos
Visibilidad: 8000 metros
Débil Lluvia
Nubes: Cubierto a 2000 pies sobre el nivel del aeródromo
Temperatura máxima: 11ºC el 19 a las 14:00 UTC
Temperatura mínima: 2ºC el 20 a las 11:00 UTC
Se espera un cambio entre las 15:00 UTC del 19 y las 17:00 UTC del 19, :
Viento: dirección 300 grados, velocidad 15 nudos
Visibilidad: 10 km o más
No significant weather phenomena are observed at present
Nubes: Nubosidad parcial a 3000 pies sobre el nivel del aeródromo
Nubes: Nublado a 8000 pies sobre el nivel del aeródromo
Se espera un cambio entre las 02:00 UTC del 20 y las 04:00 UTC del 20, :
Viento: dirección variable, velocidad 2 nudos
Nubes: Nubosidad parcial a 7000 pies sobre el nivel del aeródromo
Nubes: Nublado a 20000 pies sobre el nivel del aeródromo